createdAt,value
2022-09-23T00:01:17.020Z,6.22
2022-09-23T00:03:46.411Z,6.54
2022-09-23T00:06:16.390Z,7.93
2022-09-23T00:08:44.577Z,7.88
2022-09-23T00:11:14.910Z,6.09
2022-09-23T00:13:43.899Z,5.74
2022-09-23T00:16:13.881Z,7.81
2022-09-23T00:18:41.217Z,5.33
2022-09-23T00:21:11.279Z,6.89
2022-09-23T00:23:41.200Z,7.75
2022-09-23T00:26:09.918Z,7.71
2022-09-23T00:28:38.764Z,6.69
2022-09-23T00:31:08.977Z,7.69
2022-09-23T00:33:35.977Z,6.83
2022-09-23T00:36:05.241Z,7.74
2022-09-23T00:38:34.578Z,5.77
2022-09-23T00:41:01.861Z,1.05
2022-09-23T00:43:41.613Z,5.78
2022-09-23T00:46:10.755Z,6.49
2022-09-23T00:48:41.627Z,4.39
2022-09-23T00:51:10.193Z,7.56
2022-09-23T00:53:38.211Z,7.59
2022-09-23T00:56:08.537Z,7.54
2022-09-23T00:58:37.804Z,7.53
2022-09-23T01:01:05.605Z,5.28
2022-09-23T01:03:32.866Z,1.59
2022-09-23T01:06:00.136Z,4.05
2022-09-23T01:08:28.795Z,5.15
2022-09-23T01:11:01.480Z,7.33
2022-09-23T01:13:35.186Z,7.25
2022-09-23T01:16:11.457Z,7.21
2022-09-23T01:19:22.232Z,7.13
2022-09-23T01:22:08.641Z,7.05
2022-09-23T01:24:47.752Z,5.87
2022-09-23T01:27:29.148Z,7.03
2022-09-23T01:30:07.774Z,5.13
2022-09-23T01:32:53.146Z,6.98
2022-09-23T01:36:01.133Z,6.98
2022-09-23T01:39:00.569Z,6.04
2022-09-23T01:41:47.383Z,6.90
2022-09-23T01:44:30.473Z,5.77
2022-09-23T01:47:02.750Z,6.56
2022-09-23T01:49:52.224Z,6.57
2022-09-23T01:52:39.359Z,6.00
2022-09-23T01:55:29.487Z,6.76
2022-09-23T01:58:04.061Z,5.25
2022-09-23T02:00:37.077Z,3.71
2022-09-23T02:03:17.643Z,4.75
2022-09-23T02:05:52.897Z,4.29
2022-09-23T02:08:29.875Z,6.55
2022-09-23T02:11:05.039Z,6.53
2022-09-23T02:13:40.375Z,6.47
2022-09-23T02:16:15.733Z,5.30
2022-09-23T02:18:52.455Z,0.74
2022-09-23T02:21:22.174Z,2.32
2022-09-23T02:24:00.389Z,3.52
2022-09-23T02:26:33.514Z,6.54
2022-09-23T02:29:24.978Z,6.54
2022-09-23T02:32:01.991Z,4.25
2022-09-23T02:35:01.365Z,6.60
2022-09-23T02:37:42.933Z,5.45
2022-09-23T02:40:46.334Z,6.57
2022-09-23T02:43:28.455Z,6.06
2022-09-23T02:45:56.450Z,3.53
2022-09-23T02:48:30.882Z,3.88
2022-09-23T02:51:02.535Z,3.85
2022-09-23T02:53:34.168Z,6.47
2022-09-23T02:56:02.230Z,4.88
2022-09-23T02:58:30.385Z,6.50
2022-09-23T03:01:06.399Z,6.55
2022-09-23T03:03:40.917Z,6.57
2022-09-23T03:06:24.503Z,4.03
2022-09-23T03:08:58.751Z,5.80
2022-09-23T03:11:26.604Z,5.10
2022-09-23T03:14:20.186Z,6.60
2022-09-23T03:17:07.426Z,4.11
2022-09-23T03:19:43.389Z,6.48
2022-09-23T03:22:19.297Z,6.49
2022-09-23T03:24:53.761Z,6.50
2022-09-23T03:27:27.007Z,2.87
2022-09-23T03:29:55.659Z,4.79
2022-09-23T03:32:28.198Z,4.30
2022-09-23T03:35:00.319Z,6.33
2022-09-23T03:37:47.573Z,3.78
2022-09-23T03:40:27.142Z,4.18
2022-09-23T03:42:59.118Z,5.65
2022-09-23T03:45:33.568Z,4.55
2022-09-23T03:48:01.486Z,6.55
2022-09-23T03:50:29.137Z,6.24
2022-09-23T03:52:56.068Z,4.08
2022-09-23T03:55:23.025Z,4.47
2022-09-23T03:57:49.901Z,5.39
2022-09-23T04:00:17.027Z,6.16
2022-09-23T04:02:44.550Z,6.81
2022-09-23T04:05:13.383Z,6.76
2022-09-23T04:07:41.357Z,6.79
2022-09-23T04:10:10.197Z,5.40
2022-09-23T04:12:37.706Z,1.88
2022-09-23T04:15:05.379Z,5.72
2022-09-23T04:17:32.341Z,4.13
2022-09-23T04:19:59.297Z,6.06
2022-09-23T04:22:26.520Z,0.03
2022-09-23T04:24:53.493Z,3.82
2022-09-23T04:27:23.192Z,5.46
2022-09-23T04:29:50.109Z,-0.44
2022-09-23T04:32:17.088Z,2.88
2022-09-23T04:34:46.755Z,3.16
2022-09-23T04:37:13.889Z,5.45
2022-09-23T04:39:40.843Z,2.95
2022-09-23T04:42:08.000Z,4.08
2022-09-23T04:44:35.232Z,5.79
2022-09-23T04:47:02.260Z,6.44
2022-09-23T04:49:30.310Z,6.57
2022-09-23T04:51:57.165Z,5.18
2022-09-23T04:54:24.110Z,3.32
2022-09-23T04:56:51.059Z,3.00
2022-09-23T04:59:18.041Z,6.59
2022-09-23T05:01:45.006Z,5.71
2022-09-23T05:04:14.367Z,4.20
2022-09-23T05:06:44.165Z,6.62
2022-09-23T05:09:15.887Z,6.66
2022-09-23T05:11:42.880Z,4.24
2022-09-23T05:14:10.238Z,4.30
2022-09-23T05:16:37.494Z,1.02
2022-09-23T05:19:04.519Z,5.59
2022-09-23T05:21:31.854Z,1.80
2022-09-23T05:24:01.036Z,6.82
2022-09-23T05:26:32.534Z,5.67
2022-09-23T05:29:00.364Z,6.97
2022-09-23T05:31:29.159Z,6.87
2022-09-23T05:33:59.121Z,7.00
2022-09-23T05:36:27.860Z,6.67
2022-09-23T05:38:57.159Z,5.26
2022-09-23T05:41:25.630Z,5.98
2022-09-23T05:43:54.319Z,5.81
2022-09-23T05:46:28.228Z,5.56
2022-09-23T05:49:02.515Z,6.83
2022-09-23T05:51:31.488Z,6.02
2022-09-23T05:53:59.887Z,7.29
2022-09-23T05:56:28.391Z,7.40
2022-09-23T05:58:58.071Z,7.31
2022-09-23T06:01:28.074Z,7.32
2022-09-23T06:03:56.898Z,7.37
2022-09-23T06:06:42.978Z,7.53
2022-09-23T06:09:16.648Z,7.68
2022-09-23T06:11:43.782Z,6.85
2022-09-23T06:14:15.122Z,4.81
2022-09-23T06:16:43.368Z,4.28
2022-09-23T06:19:10.828Z,6.66
2022-09-23T06:21:39.814Z,7.97
2022-09-23T06:24:07.901Z,4.78
2022-09-23T06:26:36.675Z,7.93
2022-09-23T06:29:10.141Z,7.98
2022-09-23T06:31:37.274Z,7.72
2022-09-23T06:34:11.667Z,7.76
2022-09-23T06:36:44.375Z,4.44
2022-09-23T06:39:12.841Z,7.61
2022-09-23T06:41:39.702Z,4.49
2022-09-23T06:44:06.757Z,8.20
2022-09-23T06:46:33.863Z,8.23
2022-09-23T06:49:02.472Z,8.34
2022-09-23T06:51:29.421Z,7.85
2022-09-23T06:53:57.022Z,8.14
2022-09-23T06:56:24.653Z,6.97
2022-09-23T06:58:55.111Z,8.87
2022-09-23T07:01:23.127Z,7.63
2022-09-23T07:03:50.316Z,7.83
2022-09-23T07:06:18.003Z,9.22
2022-09-23T07:08:47.745Z,7.99
2022-09-23T07:11:16.070Z,8.01
2022-09-23T07:13:43.598Z,9.24
2022-09-23T07:16:11.692Z,8.88
2022-09-23T07:18:39.216Z,9.58
2022-09-23T07:21:08.844Z,9.77
2022-09-23T07:23:38.014Z,9.66
2022-09-23T07:26:06.070Z,9.92
2022-09-23T07:28:33.061Z,8.07
2022-09-23T07:31:38.587Z,10.22
2022-09-23T07:34:06.855Z,8.83
2022-09-23T07:36:33.902Z,3.79
2022-09-23T07:39:02.542Z,9.75
2022-09-23T07:41:31.372Z,2.83
2022-09-23T07:44:00.516Z,3.57
2022-09-23T07:46:30.781Z,10.58
2022-09-23T07:48:58.309Z,8.68
2022-09-23T07:51:34.744Z,11.05
2022-09-23T07:54:02.643Z,6.77
2022-09-23T07:56:30.850Z,6.68
2022-09-23T07:59:00.937Z,6.98
2022-09-23T08:01:42.942Z,11.36
2022-09-23T08:04:17.497Z,11.25
2022-09-23T08:06:46.757Z,10.04
2022-09-23T08:09:14.492Z,11.62
2022-09-23T08:11:42.354Z,11.27
2022-09-23T08:14:13.916Z,3.81
2022-09-23T08:16:42.298Z,9.69
2022-09-23T08:19:09.552Z,8.11
2022-09-23T08:21:37.970Z,11.63
2022-09-23T08:24:05.935Z,9.95
2022-09-23T08:26:34.732Z,8.83
2022-09-23T08:29:02.512Z,10.95
2022-09-23T08:31:29.499Z,10.16
2022-09-23T08:33:57.947Z,11.03
2022-09-23T08:36:26.123Z,12.63
2022-09-23T08:38:53.437Z,4.22
2022-09-23T08:41:35.040Z,11.64
2022-09-23T08:44:10.369Z,12.46
2022-09-23T08:46:52.977Z,11.03
2022-09-23T08:49:28.051Z,12.22
2022-09-23T08:51:55.392Z,8.29
2022-09-23T08:54:22.739Z,11.83
2022-09-23T08:56:52.653Z,10.64
2022-09-23T08:59:44.750Z,11.41
2022-09-23T09:02:23.290Z,12.79
2022-09-23T09:04:54.814Z,8.63
2022-09-23T09:07:38.636Z,11.79
2022-09-23T09:10:35.702Z,12.80
2022-09-23T09:13:33.910Z,12.92
2022-09-23T09:16:58.309Z,12.80
2022-09-23T09:19:41.806Z,12.86
2022-09-23T09:22:19.612Z,12.44
2022-09-23T09:24:49.598Z,12.76
2022-09-23T09:27:16.566Z,11.80
2022-09-23T09:29:50.105Z,11.47
2022-09-23T09:32:46.756Z,10.66
2022-09-23T09:35:42.983Z,13.54
2022-09-23T09:38:09.908Z,12.74
2022-09-23T09:40:47.041Z,12.80
2022-09-23T09:43:23.833Z,11.19
2022-09-23T09:46:16.595Z,13.48
2022-09-23T09:49:15.151Z,13.26
2022-09-23T09:51:43.000Z,8.29
2022-09-23T09:54:23.538Z,11.65
2022-09-23T09:56:52.114Z,14.01
2022-09-23T09:59:26.403Z,13.32
2022-09-23T10:02:27.210Z,13.22
2022-09-23T10:05:23.275Z,12.39
2022-09-23T10:07:50.185Z,13.36
2022-09-23T10:10:33.843Z,12.56
2022-09-23T10:13:16.419Z,13.29
2022-09-23T10:15:45.567Z,12.22
2022-09-23T10:18:32.283Z,13.82
2022-09-23T10:21:27.785Z,13.00
2022-09-23T10:24:01.925Z,13.52
2022-09-23T10:26:55.313Z,13.14
2022-09-23T10:29:39.318Z,13.68
2022-09-23T10:32:25.899Z,13.41
2022-09-23T10:35:03.730Z,12.98
2022-09-23T10:37:39.113Z,12.10
2022-09-23T10:40:38.765Z,13.69
2022-09-23T10:43:37.460Z,13.84
2022-09-23T10:46:42.496Z,14.24
2022-09-23T10:49:33.903Z,14.22
2022-09-23T10:52:14.565Z,13.63
2022-09-23T10:55:02.856Z,13.82
2022-09-23T10:57:41.273Z,13.70
2022-09-23T11:00:42.647Z,13.79
2022-09-23T11:03:27.704Z,13.37
2022-09-23T11:06:34.771Z,13.52
2022-09-23T11:09:07.459Z,13.64
2022-09-23T11:12:08.726Z,14.00
2022-09-23T11:14:44.283Z,12.56
2022-09-23T11:17:22.286Z,13.96
2022-09-23T11:20:21.614Z,14.09
2022-09-23T11:23:22.461Z,14.24
2022-09-23T11:26:00.677Z,13.03
2022-09-23T11:28:33.500Z,14.18
2022-09-23T11:31:07.030Z,14.37
2022-09-23T11:33:56.782Z,13.26
2022-09-23T11:36:33.136Z,13.82
2022-09-23T11:39:07.306Z,14.74
2022-09-23T11:41:40.026Z,13.76
2022-09-23T11:44:34.188Z,14.58
2022-09-23T11:47:26.776Z,13.51
2022-09-23T11:50:05.425Z,13.09
2022-09-23T11:52:37.116Z,12.74
2022-09-23T11:55:22.999Z,12.77
2022-09-23T11:57:57.295Z,13.37
2022-09-23T12:00:30.508Z,13.64
2022-09-23T12:03:12.217Z,12.44
2022-09-23T12:05:48.054Z,13.44
2022-09-23T12:08:37.622Z,13.81
2022-09-23T12:11:37.163Z,14.04
2022-09-23T12:14:41.436Z,14.79
2022-09-23T12:17:47.731Z,14.07
2022-09-23T12:20:46.407Z,14.89
2022-09-23T12:23:26.913Z,10.65
2022-09-23T12:25:58.154Z,13.34
2022-09-23T12:28:30.045Z,14.01
2022-09-23T12:31:01.345Z,14.18
2022-09-23T12:33:30.636Z,14.09
2022-09-23T12:36:06.282Z,15.14
2022-09-23T12:38:48.346Z,14.64
2022-09-23T12:41:43.411Z,13.56
2022-09-23T12:44:14.263Z,14.36
2022-09-23T12:46:44.940Z,14.21
2022-09-23T12:49:36.077Z,14.30
2022-09-23T12:52:12.209Z,14.39
2022-09-23T12:54:40.903Z,14.38
2022-09-23T12:57:23.061Z,14.21
2022-09-23T13:00:14.244Z,13.83
2022-09-23T13:02:47.145Z,13.92
2022-09-23T13:05:58.129Z,13.73
2022-09-23T13:08:25.556Z,11.84
2022-09-23T13:11:00.351Z,13.99
2022-09-23T13:13:38.870Z,11.32
2022-09-23T13:16:35.158Z,14.12
2022-09-23T13:19:04.605Z,13.17
2022-09-23T13:21:43.997Z,14.05
2022-09-23T13:24:14.048Z,14.11
2022-09-23T13:26:50.296Z,12.17
2022-09-23T13:29:28.616Z,12.97
2022-09-23T13:31:58.120Z,12.55
2022-09-23T13:34:29.347Z,6.71
2022-09-23T13:36:56.349Z,11.80
2022-09-23T13:39:28.010Z,14.53
2022-09-23T13:42:05.369Z,13.74
2022-09-23T13:44:32.350Z,13.95
2022-09-23T13:47:02.579Z,14.79
2022-09-23T13:49:37.147Z,14.27
2022-09-23T13:52:04.437Z,12.27
2022-09-23T13:54:35.766Z,13.75
2022-09-23T13:57:03.887Z,14.02
2022-09-23T13:59:37.355Z,13.51
2022-09-23T14:02:11.210Z,15.33
2022-09-23T14:04:38.655Z,14.55
2022-09-23T14:07:08.402Z,12.22
2022-09-23T14:09:36.047Z,14.00
2022-09-23T14:12:06.117Z,13.87
2022-09-23T14:14:35.326Z,13.83
2022-09-23T14:17:02.959Z,12.34
2022-09-23T14:19:30.336Z,14.88
2022-09-23T14:21:57.530Z,13.23
2022-09-23T14:24:32.267Z,14.88
2022-09-23T14:27:04.646Z,11.82
2022-09-23T14:29:37.571Z,14.70
2022-09-23T14:32:13.340Z,13.64
2022-09-23T14:34:43.174Z,14.37
2022-09-23T14:37:37.796Z,14.38
2022-09-23T14:40:11.513Z,12.97
2022-09-23T14:42:41.995Z,14.10
2022-09-23T14:45:35.932Z,14.08
2022-09-23T14:48:08.710Z,13.94
2022-09-23T14:50:48.802Z,13.30
2022-09-23T14:53:24.440Z,13.99
2022-09-23T14:55:57.843Z,12.04
2022-09-23T14:58:28.980Z,10.24
2022-09-23T15:01:01.090Z,13.90
2022-09-23T15:03:29.032Z,13.87
2022-09-23T15:06:03.100Z,11.56
2022-09-23T15:08:34.872Z,9.78
2022-09-23T15:11:08.207Z,13.57
2022-09-23T15:13:49.719Z,13.07
2022-09-23T15:16:24.827Z,12.98
2022-09-23T15:18:56.153Z,10.94
2022-09-23T15:21:25.239Z,12.36
2022-09-23T15:23:56.447Z,13.60
2022-09-23T15:26:24.786Z,13.53
2022-09-23T15:28:54.472Z,13.45
2022-09-23T15:31:23.609Z,13.37
2022-09-23T15:33:51.560Z,11.84
2022-09-23T15:36:26.268Z,12.65
2022-09-23T15:38:54.234Z,11.47
2022-09-23T15:41:21.678Z,9.84
2022-09-23T15:43:48.864Z,12.40
2022-09-23T15:46:26.370Z,7.37
2022-09-23T15:48:59.437Z,13.14
2022-09-23T15:51:27.946Z,13.12
2022-09-23T15:53:56.655Z,11.08
2022-09-23T15:56:29.374Z,11.59
2022-09-23T15:58:56.427Z,12.82
2022-09-23T16:01:30.514Z,12.58
2022-09-23T16:03:57.904Z,12.93
2022-09-23T16:06:24.892Z,11.08
2022-09-23T16:08:52.593Z,12.03
2022-09-23T16:11:26.996Z,9.55
2022-09-23T16:13:54.105Z,11.05
2022-09-23T16:16:24.151Z,5.12
2022-09-23T16:18:53.960Z,6.44
2022-09-23T16:21:24.667Z,6.87
2022-09-23T16:23:53.609Z,12.45
2022-09-23T16:26:22.006Z,12.30
2022-09-23T16:28:50.955Z,10.92
2022-09-23T16:31:18.880Z,11.91
2022-09-23T16:33:47.019Z,11.78
2022-09-23T16:36:28.046Z,10.23
2022-09-23T16:38:55.929Z,10.31
2022-09-23T16:41:26.544Z,9.80
2022-09-23T16:43:53.844Z,10.36
2022-09-23T16:46:21.565Z,11.13
2022-09-23T16:48:52.976Z,7.37
2022-09-23T16:51:29.010Z,8.03
2022-09-23T16:53:58.022Z,9.47
2022-09-23T16:56:28.798Z,7.55
2022-09-23T16:58:57.018Z,10.68
2022-09-23T17:01:45.643Z,10.57
2022-09-23T17:04:13.607Z,10.51
2022-09-23T17:06:45.059Z,10.50
2022-09-23T17:09:12.488Z,10.01
2022-09-23T17:11:39.679Z,8.43
2022-09-23T17:14:06.866Z,9.76
2022-09-23T17:16:35.571Z,10.46
2022-09-23T17:19:08.413Z,9.36
2022-09-23T17:21:35.714Z,9.79
2022-09-23T17:24:02.904Z,9.40
2022-09-23T17:26:30.068Z,8.61
2022-09-23T17:28:58.255Z,9.73
2022-09-23T17:31:25.416Z,7.84
2022-09-23T17:33:53.261Z,8.35
2022-09-23T17:36:21.157Z,9.32
2022-09-23T17:38:49.135Z,10.09
2022-09-23T17:41:18.397Z,10.11
2022-09-23T17:43:47.049Z,6.71
2022-09-23T17:46:18.954Z,10.08
2022-09-23T17:48:46.164Z,9.44
2022-09-23T17:51:14.811Z,9.97
2022-09-23T17:53:43.635Z,9.93
2022-09-23T17:56:21.927Z,9.82
2022-09-23T17:58:50.397Z,9.73
2022-09-23T18:01:20.423Z,7.59
2022-09-23T18:03:48.690Z,8.70
2022-09-23T18:06:21.409Z,8.73
2022-09-23T18:08:50.249Z,9.09
2022-09-23T18:11:21.779Z,9.39
2022-09-23T18:13:53.294Z,9.32
2022-09-23T18:16:22.041Z,9.29
2022-09-23T18:19:00.039Z,9.18
2022-09-23T18:21:30.779Z,9.15
2022-09-23T18:24:21.421Z,7.16
2022-09-23T18:26:45.869Z,6.88
2022-09-23T18:29:12.929Z,7.56
2022-09-23T18:31:39.887Z,7.13
2022-09-23T18:34:11.395Z,7.20
2022-09-23T18:36:39.025Z,2.04
2022-09-23T18:39:06.603Z,8.45
2022-09-23T18:41:34.221Z,5.16
2022-09-23T18:44:01.724Z,8.73
2022-09-23T18:46:30.161Z,7.90
2022-09-23T18:49:16.815Z,8.27
2022-09-23T18:51:56.127Z,8.37
2022-09-23T18:54:25.498Z,8.21
2022-09-23T18:56:52.972Z,8.70
2022-09-23T18:59:24.022Z,8.68
2022-09-23T19:01:56.866Z,8.77
2022-09-23T19:04:25.807Z,8.77
2022-09-23T19:06:54.261Z,6.89
2022-09-23T19:09:21.257Z,5.79
2022-09-23T19:11:52.452Z,6.90
2022-09-23T19:14:19.623Z,9.00
2022-09-23T19:16:49.235Z,6.21
2022-09-23T19:19:16.350Z,6.67
2022-09-23T19:21:43.552Z,7.39
2022-09-23T19:24:16.209Z,9.20
2022-09-23T19:26:44.290Z,9.29
2022-09-23T19:29:17.382Z,9.00
2022-09-23T19:31:44.632Z,7.68
2022-09-23T19:34:16.939Z,9.06
2022-09-23T19:36:46.586Z,7.52
2022-09-23T19:39:21.722Z,7.95
2022-09-23T19:41:50.822Z,9.70
2022-09-23T19:44:18.211Z,8.48
2022-09-23T19:46:46.495Z,9.74
2022-09-23T19:49:13.719Z,6.23
2022-09-23T19:51:41.379Z,6.93
2022-09-23T19:54:09.430Z,9.88
2022-09-23T19:56:36.910Z,9.85
2022-09-23T19:59:06.209Z,5.83
2022-09-23T20:01:34.634Z,8.94
2022-09-23T20:04:02.470Z,8.48
2022-09-23T20:06:31.251Z,9.84
2022-09-23T20:09:02.154Z,9.78
2022-09-23T20:11:30.064Z,9.75
2022-09-23T20:14:01.978Z,9.76
2022-09-23T20:16:32.628Z,9.50
2022-09-23T20:19:00.544Z,7.66
2022-09-23T20:21:29.623Z,9.03
2022-09-23T20:23:58.085Z,8.67
2022-09-23T20:26:43.680Z,8.66
2022-09-23T20:29:11.409Z,9.57
2022-09-23T20:31:40.698Z,8.47
2022-09-23T20:34:08.566Z,9.50
2022-09-23T20:36:36.491Z,9.44
2022-09-23T20:39:09.422Z,7.34
2022-09-23T20:41:38.137Z,7.71
2022-09-23T20:44:09.770Z,9.22
2022-09-23T20:46:37.017Z,5.20
2022-09-23T20:49:04.555Z,8.06
2022-09-23T20:51:33.639Z,7.16
2022-09-23T20:54:01.158Z,9.06
2022-09-23T20:56:29.511Z,8.03
2022-09-23T20:59:04.242Z,8.52
2022-09-23T21:01:37.309Z,8.48
2022-09-23T21:04:06.119Z,8.77
2022-09-23T21:06:35.689Z,6.47
2022-09-23T21:09:03.556Z,7.00
2022-09-23T21:11:31.485Z,7.36
2022-09-23T21:14:00.724Z,8.50
2022-09-23T21:16:27.714Z,7.68
2022-09-23T21:18:54.731Z,4.20
2022-09-23T21:21:22.571Z,8.34
2022-09-23T21:23:51.138Z,7.28
2022-09-23T21:26:22.190Z,8.41
2022-09-23T21:28:55.854Z,2.63
2022-09-23T21:31:26.006Z,8.26
2022-09-23T21:33:56.953Z,8.18
2022-09-23T21:36:25.009Z,6.67
2022-09-23T21:38:52.652Z,8.09
2022-09-23T21:41:20.161Z,8.09
2022-09-23T21:43:48.554Z,7.40
2022-09-23T21:46:20.656Z,6.15
2022-09-23T21:48:53.964Z,8.16
2022-09-23T21:51:25.154Z,8.18
2022-09-23T21:53:55.319Z,2.02
2022-09-23T21:56:32.177Z,6.40
2022-09-23T21:59:02.666Z,8.18
2022-09-23T22:01:35.454Z,8.26
2022-09-23T22:04:10.954Z,7.27
2022-09-23T22:06:40.721Z,7.21
2022-09-23T22:09:14.015Z,7.89
2022-09-23T22:12:00.573Z,8.27
2022-09-23T22:14:27.560Z,4.41
2022-09-23T22:16:59.359Z,7.33
2022-09-23T22:19:28.550Z,8.26
2022-09-23T22:21:56.412Z,8.22
2022-09-23T22:24:23.590Z,8.19
2022-09-23T22:26:51.031Z,6.74
2022-09-23T22:29:37.987Z,6.89
2022-09-23T22:32:28.658Z,5.59
2022-09-23T22:34:56.420Z,7.99
2022-09-23T22:37:34.385Z,8.04
2022-09-23T22:40:02.799Z,6.53
2022-09-23T22:42:30.416Z,6.54
2022-09-23T22:44:57.564Z,6.34
2022-09-23T22:47:24.714Z,-1.78
2022-09-23T22:49:54.898Z,7.80
2022-09-23T22:52:24.735Z,7.71
2022-09-23T22:54:52.646Z,7.72
2022-09-23T22:57:19.932Z,7.66
2022-09-23T22:59:50.653Z,4.85
2022-09-23T23:02:19.239Z,6.81
2022-09-23T23:04:50.065Z,7.63
2022-09-23T23:07:22.723Z,7.53
2022-09-23T23:09:50.919Z,7.40
2022-09-23T23:12:20.469Z,6.31
2022-09-23T23:14:48.872Z,7.25
2022-09-23T23:17:16.387Z,5.29
2022-09-23T23:19:43.466Z,7.01
2022-09-23T23:22:10.718Z,4.46
2022-09-23T23:24:37.809Z,4.63
2022-09-23T23:27:04.780Z,3.38
2022-09-23T23:29:31.710Z,4.75
2022-09-23T23:31:58.657Z,6.90
2022-09-23T23:34:25.818Z,4.42
2022-09-23T23:36:56.433Z,6.76
2022-09-23T23:39:25.189Z,5.74
2022-09-23T23:41:55.222Z,6.66
2022-09-23T23:44:24.127Z,4.40
2022-09-23T23:46:51.566Z,5.87
2022-09-23T23:49:18.710Z,4.58
2022-09-23T23:51:45.920Z,2.17
2022-09-23T23:54:13.157Z,1.79
2022-09-23T23:56:40.148Z,4.57
2022-09-23T23:59:07.301Z,5.96
